Time;durP1;ratioP1;P1;durP2;ratioP2;P2;SDS_P1;SDS_P2;PMS_P1;PMS_P2;Temp;Humidity;BMP_temperature;BMP_pressure;BME280_temperature;BME280_humidity;BME280_pressure;Samples;Min_cycle;Max_cycle;Signal;HPM_P1;HPM_P2
2022/03/27 05:36:00;;;;;;;;;;;;;;;11.09;46.56;99420.66;4952330;24;19971;-69
2022/03/27 05:38:27;;;;;;;;;;;;;;;11.08;45.87;99421.81;4812108;29;20249;-69
2022/03/27 05:40:54;;;;;;;;;;;;;;;11.07;44.93;99420.22;4812523;29;20370;-69
2022/03/27 05:43:22;;;;;;;;;;;;;;;11.08;44.82;99430.22;4811395;29;19951;-69
2022/03/27 05:45:50;;;;;;;;;;;;;;;11.05;45.14;99423.38;4812620;29;19950;-70
2022/03/27 05:48:17;;;;;;;;;;;;;;;11.07;44.99;99432.25;4812222;29;19950;-69
2022/03/27 05:50:45;;;;;;;;;;;;;;;11.12;44.76;99436.72;4812020;29;19956;-69
2022/03/27 05:53:12;;;;;;;;;;;;;;;11.26;45.70;99431.34;4808290;29;19947;-70
2022/03/27 05:55:40;;;;;;;;;;;;;;;11.38;44.93;99447.13;4808055;29;19949;-70
2022/03/27 05:58:07;;;;;;;;;;;;;;;11.48;43.52;99438.91;4807648;29;19955;-70
2022/03/27 06:00:35;;;;;;;;;;;;;;;11.61;43.50;99439.50;4807324;29;19960;-69
2022/03/27 06:03:02;;;;;;;;;;;;;;;11.84;44.08;99438.28;4788991;29;19958;-69
2022/03/27 06:05:29;;;;;;;;;;;;;;;12.09;43.71;99446.22;4811017;29;19957;-69
2022/03/27 06:07:57;;;;;;;;;;;;;;;12.30;43.23;99443.72;4811789;29;19954;-70
2022/03/27 06:10:25;;;;;;;;;;;;;;;12.52;41.92;99451.97;4808298;29;19959;-70
2022/03/27 06:12:53;;;;;;;;;;;;;;;12.73;41.47;99445.81;4807330;29;19962;-67
2022/03/27 06:15:21;;;;;;;;;;;;;;;12.86;41.40;99449.16;4805295;29;19965;-67
2022/03/27 06:17:50;;;;;;;;;;;;;;;12.95;40.94;99450.47;4796530;29;19977;-68
2022/03/27 06:20:18;;;;;;;;;;;;;;;13.05;40.21;99458.19;4806036;29;19960;-68
2022/03/27 06:22:46;;;;;;;;;;;;;;;13.15;40.41;99453.91;4806628;29;19949;-70
2022/03/27 06:25:16;;;;;;;;;;;;;;;13.35;42.84;99458.06;4796958;29;19956;-69
2022/03/27 06:27:44;;;;;;;;;;;;;;;13.57;42.87;99459.84;4803458;29;19951;-67
2022/03/27 06:30:17;;;;;;;;;;;;;;;13.79;41.68;99458.81;4805903;29;20424;-67
2022/03/27 06:32:46;;;;;;;;;;;;;;;13.96;41.27;99464.97;4807092;29;19961;-67
2022/03/27 06:35:15;;;;;;;;;;;;;;;14.20;39.38;99467.94;4811620;29;19973;-67
2022/03/27 06:37:42;;;;;;;;;;;;;;;14.54;40.43;99468.53;4808382;29;19982;-67
2022/03/27 06:40:12;;;;;;;;;;;;;;;14.88;40.97;99467.03;4809545;29;20366;-67
2022/03/27 06:42:41;;;;;;;;;;;;;;;15.18;37.60;99469.50;4810854;29;19957;-67
2022/03/27 06:45:09;;;;;;;;;;;;;;;15.34;37.55;99474.72;4811513;29;19945;-68
2022/03/27 06:47:37;;;;;;;;;;;;;;;15.61;35.71;99476.00;4810435;29;19953;-68
2022/03/27 06:50:05;;;;;;;;;;;;;;;15.92;34.91;99483.63;4810821;29;19959;-68
2022/03/27 06:52:33;;;;;;;;;;;;;;;16.18;32.98;99474.72;4811375;29;19952;-68
2022/03/27 06:55:00;;;;;;;;;;;;;;;16.32;32.26;99479.50;4810001;29;19951;-68
2022/03/27 06:57:28;;;;;;;;;;;;;;;16.41;31.99;99489.16;4790392;29;20297;-73
2022/03/27 07:05:26;;;;;;;;;;;;;;;16.71;30.75;99488.69;4813439;29;19952;-69
2022/03/27 07:07:57;;;;;;;;;;;;;;;16.89;30.81;99485.78;4816921;29;19955;-69
2022/03/27 07:10:25;;;;;;;;;;;;;;;17.05;30.45;99491.72;4815119;29;20244;-69
2022/03/27 07:12:53;;;;;;;;;;;;;;;17.14;30.46;99497.75;4809763;29;19978;-70
2022/03/27 07:15:21;;;;;;;;;;;;;;;17.26;30.37;99494.44;4810059;29;20218;-70
2022/03/27 07:17:49;;;;;;;;;;;;;;;17.25;30.14;99504.13;4795090;29;19974;-69
2022/03/27 07:20:21;;;;;;;;;;;;;;;17.24;30.00;99507.38;4795627;29;19948;-69
2022/03/27 07:22:48;;;;;;;;;;;;;;;17.20;29.78;99507.38;4810111;29;20036;-68
2022/03/27 07:25:16;;;;;;;;;;;;;;;17.23;29.69;99505.75;4809750;29;19966;-68
2022/03/27 07:27:45;;;;;;;;;;;;;;;17.22;29.90;99510.59;4810041;29;20289;-68
2022/03/27 07:30:13;;;;;;;;;;;;;;;17.13;30.79;99506.63;4808900;29;19949;-68
2022/03/27 07:32:40;;;;;;;;;;;;;;;17.21;31.40;99508.19;4803527;29;20350;-68
2022/03/27 07:35:09;;;;;;;;;;;;;;;17.22;31.85;99512.63;4794710;29;20400;-67
2022/03/27 07:37:37;;;;;;;;;;;;;;;17.50;31.61;99516.09;4801762;29;19969;-69
2022/03/27 07:40:08;;;;;;;;;;;;;;;17.75;31.34;99507.44;4809843;29;19965;-67
2022/03/27 07:42:36;;;;;;;;;;;;;;;17.91;31.16;99501.22;4809102;29;19952;-67
2022/03/27 07:45:04;;;;;;;;;;;;;;;18.03;31.07;99509.19;4809528;29;19965;-67
2022/03/27 07:47:32;;;;;;;;;;;;;;;18.08;30.98;99512.38;4805649;29;19947;-67
2022/03/27 07:50:00;;;;;;;;;;;;;;;18.24;30.66;99514.69;4792118;30;19948;-67
2022/03/27 07:52:27;;;;;;;;;;;;;;;18.29;30.91;99500.84;4792529;30;19955;-67
2022/03/27 07:54:55;;;;;;;;;;;;;;;18.33;30.90;99509.31;4809584;29;19960;-67
2022/03/27 07:57:22;;;;;;;;;;;;;;;18.44;31.07;99512.03;4809781;29;19967;-67
2022/03/27 07:59:50;;;;;;;;;;;;;;;18.64;31.07;99513.84;4809570;29;19948;-67
2022/03/27 08:02:18;;;;;;;;;;;;;;;18.83;30.88;99510.38;4809810;29;19957;-67
2022/03/27 08:04:47;;;;;;;;;;;;;;;19.00;31.45;99503.66;4809324;29;19945;-67
2022/03/27 08:07:15;;;;;;;;;;;;;;;18.91;31.60;99502.56;4809064;29;19960;-67
2022/03/27 08:09:42;;;;;;;;;;;;;;;18.86;31.83;99508.72;4809749;29;20337;-67
2022/03/27 08:12:11;;;;;;;;;;;;;;;18.51;32.43;99512.75;4809917;29;19945;-67
2022/03/27 08:14:39;;;;;;;;;;;;;;;18.49;32.10;99514.41;4809029;29;19950;-67
2022/03/27 08:17:06;;;;;;;;;;;;;;;18.44;31.79;99512.03;4809254;29;19979;-67
2022/03/27 08:19:34;;;;;;;;;;;;;;;18.37;32.12;99518.56;4794142;29;19954;-67
2022/03/27 08:22:01;;;;;;;;;;;;;;;18.43;32.82;99524.59;4809562;29;19948;-67
2022/03/27 08:24:28;;;;;;;;;;;;;;;18.40;32.83;99520.56;4791745;29;19956;-67
2022/03/27 08:26:56;;;;;;;;;;;;;;;18.59;33.28;99519.16;4808793;29;19956;-67
2022/03/27 08:29:24;;;;;;;;;;;;;;;18.38;33.92;99525.84;4806506;29;19965;-67
2022/03/27 08:31:52;;;;;;;;;;;;;;;18.43;33.34;99521.75;4807875;29;19957;-67
2022/03/27 08:34:21;;;;;;;;;;;;;;;18.51;34.11;99526.16;4807724;29;19969;-67
2022/03/27 08:36:48;;;;;;;;;;;;;;;18.50;35.60;99527.38;4808085;29;20249;-67
2022/03/27 08:39:15;;;;;;;;;;;;;;;18.26;34.23;99521.53;4809003;29;19948;-68
2022/03/27 08:41:44;;;;;;;;;;;;;;;18.11;34.51;99527.72;4809604;29;19955;-68
2022/03/27 08:44:12;;;;;;;;;;;;;;;17.89;36.25;99526.31;4801639;29;19949;-67
2022/03/27 08:46:41;;;;;;;;;;;;;;;17.80;36.38;99521.16;4789994;30;19951;-67
2022/03/27 08:49:10;;;;;;;;;;;;;;;17.46;38.33;99523.78;4798732;29;19948;-67
2022/03/27 08:51:54;;;;;;;;;;;;;;;17.52;37.32;99530.66;4808103;29;19948;-67
2022/03/27 08:54:26;;;;;;;;;;;;;;;17.33;37.61;99528.31;4804653;29;19951;-67
2022/03/27 08:57:11;;;;;;;;;;;;;;;17.33;37.74;99538.81;4808648;29;19957;-67
2022/03/27 08:59:40;;;;;;;;;;;;;;;17.49;37.78;99539.91;4809089;29;19946;-68
2022/03/27 09:02:07;;;;;;;;;;;;;;;17.58;36.68;99537.44;4809185;29;19958;-67
2022/03/27 09:04:36;;;;;;;;;;;;;;;17.37;37.00;99536.75;4809056;29;19949;-67
2022/03/27 09:07:03;;;;;;;;;;;;;;;17.31;37.91;99547.69;4803751;29;19954;-67
2022/03/27 09:09:35;;;;;;;;;;;;;;;17.17;37.93;99544.97;4797617;29;19955;-67
2022/03/27 09:12:04;;;;;;;;;;;;;;;17.32;38.54;99545.69;4805787;29;19948;-67
2022/03/27 09:14:33;;;;;;;;;;;;;;;17.26;39.59;99544.53;4809355;29;19954;-67
2022/03/27 09:17:04;;;;;;;;;;;;;;;17.09;40.89;99541.34;4809289;29;19948;-67
2022/03/27 09:19:32;;;;;;;;;;;;;;;17.32;40.53;99548.50;4812322;29;19955;-68
2022/03/27 09:22:02;;;;;;;;;;;;;;;17.15;42.44;99538.91;4812842;29;20218;-67
2022/03/27 09:24:35;;;;;;;;;;;;;;;17.03;42.69;99537.38;4806265;29;19961;-67
2022/03/27 09:27:02;;;;;;;;;;;;;;;17.00;46.47;99540.19;4803739;29;19952;-67
2022/03/27 09:29:29;;;;;;;;;;;;;;;17.24;44.71;99541.31;4795043;30;19980;-67
2022/03/27 09:31:58;;;;;;;;;;;;;;;17.46;43.67;99531.47;4809478;29;19946;-67
2022/03/27 09:34:25;;;;;;;;;;;;;;;17.57;43.98;99535.88;4811968;29;20257;-68
2022/03/27 09:36:52;;;;;;;;;;;;;;;17.43;46.17;99546.44;4812188;29;19957;-68
2022/03/27 09:39:22;;;;;;;;;;;;;;;17.51;45.49;99545.97;4811988;29;20403;-67
2022/03/27 09:41:59;;;;;;;;;;;;;;;17.52;44.46;99541.97;4812006;29;19954;-67
2022/03/27 09:44:34;;;;;;;;;;;;;;;17.62;44.60;99540.28;4812486;29;19949;-68
2022/03/27 09:47:02;;;;;;;;;;;;;;;17.62;44.41;99541.09;4808818;29;19953;-67
2022/03/27 09:49:35;;;;;;;;;;;;;;;17.65;43.98;99540.22;4812358;29;19949;-67
2022/03/27 09:52:10;;;;;;;;;;;;;;;17.69;43.72;99543.03;4811744;29;19958;-68
2022/03/27 09:54:53;;;;;;;;;;;;;;;17.40;44.34;99536.75;4796340;29;19953;-68
2022/03/27 09:57:34;;;;;;;;;;;;;;;17.25;45.68;99540.88;4811926;29;20358;-68
2022/03/27 10:00:12;;;;;;;;;;;;;;;17.16;45.85;99539.72;4812308;29;19948;-67
2022/03/27 10:02:40;;;;;;;;;;;;;;;17.00;50.52;99538.19;4808790;29;19949;-67
2022/03/27 10:05:11;;;;;;;;;;;;;;;16.74;50.60;99540.72;4810791;29;19955;-67
2022/03/27 10:07:43;;;;;;;;;;;;;;;16.59;49.99;99536.31;4811417;29;20343;-67
2022/03/27 10:10:14;;;;;;;;;;;;;;;16.53;47.17;99535.94;4805146;29;19950;-67
2022/03/27 10:12:43;;;;;;;;;;;;;;;16.30;45.50;99542.03;4821187;29;19949;-68
2022/03/27 10:15:12;;;;;;;;;;;;;;;16.21;44.24;99538.78;4811651;29;19949;-67
2022/03/27 10:17:41;;;;;;;;;;;;;;;16.38;48.16;99540.78;4810713;29;19964;-67
2022/03/27 10:20:10;;;;;;;;;;;;;;;16.04;46.64;99542.44;4810700;29;19955;-68
2022/03/27 10:22:42;;;;;;;;;;;;;;;15.68;47.32;99540.84;4811127;29;19953;-67
2022/03/27 10:25:10;;;;;;;;;;;;;;;15.83;49.53;99539.66;4812050;29;19944;-67
2022/03/27 10:27:38;;;;;;;;;;;;;;;15.91;49.68;99537.63;4811405;29;19951;-67
2022/03/27 10:30:06;;;;;;;;;;;;;;;15.53;49.70;99534.38;4810342;29;19957;-67
2022/03/27 10:32:34;;;;;;;;;;;;;;;15.59;51.28;99529.97;4810624;29;19958;-67
2022/03/27 10:35:23;;;;;;;;;;;;;;;15.96;49.39;99537.22;4810781;29;20260;-67
2022/03/27 10:37:59;;;;;;;;;;;;;;;15.96;50.77;99529.56;4801849;29;20267;-67
2022/03/27 10:40:56;;;;;;;;;;;;;;;15.79;53.60;99524.75;4796596;29;19951;-67
2022/03/27 10:43:31;;;;;;;;;;;;;;;15.86;53.60;99526.75;4791321;29;19950;-68
2022/03/27 10:46:17;;;;;;;;;;;;;;;15.84;49.71;99526.34;4809558;29;19955;-67
2022/03/27 10:48:45;;;;;;;;;;;;;;;15.51;49.59;99536.00;4810293;29;20355;-67
2022/03/27 10:51:24;;;;;;;;;;;;;;;15.54;47.79;99521.91;4810763;29;19981;-67
2022/03/27 10:54:01;;;;;;;;;;;;;;;15.57;49.63;99528.75;4814161;29;19949;-67
2022/03/27 10:56:48;;;;;;;;;;;;;;;15.59;50.64;99518.69;4805862;29;19953;-67
2022/03/27 10:59:17;;;;;;;;;;;;;;;15.61;51.72;99524.72;4807596;29;20257;-67
2022/03/27 11:01:45;;;;;;;;;;;;;;;15.71;46.61;99520.31;4805461;29;19951;-67
2022/03/27 11:04:13;;;;;;;;;;;;;;;15.55;49.03;99523.50;4805493;29;19966;-67
2022/03/27 11:06:42;;;;;;;;;;;;;;;15.89;47.58;99521.13;4807655;29;19951;-67
2022/03/27 11:09:12;;;;;;;;;;;;;;;15.78;49.11;99514.66;4809191;29;19949;-67
2022/03/27 11:11:39;;;;;;;;;;;;;;;15.93;48.85;99519.09;4797486;29;19951;-67
2022/03/27 11:14:07;;;;;;;;;;;;;;;15.94;48.68;99509.44;4807650;29;19954;-67
2022/03/27 11:16:55;;;;;;;;;;;;;;;15.77;51.48;99511.03;4801337;29;20307;-68
2022/03/27 11:19:41;;;;;;;;;;;;;;;15.53;51.59;99513.84;4809735;29;19967;-67
2022/03/27 11:22:27;;;;;;;;;;;;;;;15.58;51.31;99510.63;4809509;29;20250;-68
2022/03/27 11:25:13;;;;;;;;;;;;;;;15.50;50.01;99500.56;4809017;29;19951;-67
2022/03/27 11:27:54;;;;;;;;;;;;;;;15.59;48.54;99503.78;4796512;29;19959;-67
2022/03/27 11:30:21;;;;;;;;;;;;;;;15.44;49.43;99502.94;4796477;29;19950;-67
2022/03/27 11:33:07;;;;;;;;;;;;;;;15.59;48.49;99498.16;4810408;29;19960;-67
2022/03/27 11:35:35;;;;;;;;;;;;;;;15.49;46.21;99504.59;4806266;29;19966;-67
2022/03/27 11:38:21;;;;;;;;;;;;;;;15.40;48.29;99495.69;4809515;29;19949;-67
2022/03/27 11:40:48;;;;;;;;;;;;;;;15.45;46.80;99498.16;4802269;29;19952;-67
2022/03/27 11:43:25;;;;;;;;;;;;;;;15.58;48.10;99494.53;4802331;29;19951;-67
2022/03/27 11:45:54;;;;;;;;;;;;;;;15.62;47.59;99492.53;4799958;29;19947;-67
2022/03/27 11:48:22;;;;;;;;;;;;;;;15.89;40.55;99500.56;4809815;29;19951;-67
2022/03/27 11:50:50;;;;;;;;;;;;;;;15.89;42.52;99494.91;4809662;29;20343;-67
2022/03/27 11:53:28;;;;;;;;;;;;;;;15.84;44.51;99493.31;4805911;29;19954;-67
2022/03/27 11:56:03;;;;;;;;;;;;;;;15.66;46.97;99487.69;4811624;29;19950;-67
2022/03/27 11:58:30;;;;;;;;;;;;;;;15.31;45.76;99486.84;4807027;29;19973;-67
2022/03/27 12:01:01;;;;;;;;;;;;;;;15.44;45.50;99479.59;4808475;29;20328;-67
2022/03/27 12:03:29;;;;;;;;;;;;;;;15.33;46.82;99476.75;4809298;29;19960;-67
2022/03/27 12:06:03;;;;;;;;;;;;;;;15.48;46.63;99478.41;4808821;29;19948;-67
2022/03/27 12:08:31;;;;;;;;;;;;;;;15.59;46.66;99470.78;4808760;29;19952;-67
2022/03/27 12:11:04;;;;;;;;;;;;;;;15.36;39.74;99477.94;4809691;29;19952;-67
2022/03/27 12:13:36;;;;;;;;;;;;;;;15.62;38.15;99481.25;4809842;29;19952;-67
2022/03/27 12:16:03;;;;;;;;;;;;;;;15.59;37.25;99475.59;4809403;29;19951;-67
2022/03/27 12:18:32;;;;;;;;;;;;;;;15.58;38.02;99477.59;4811320;29;19981;-67
2022/03/27 12:21:03;;;;;;;;;;;;;;;15.51;38.57;99473.97;4807945;29;19951;-67
2022/03/27 12:23:32;;;;;;;;;;;;;;;15.58;37.69;99473.97;4805611;29;19950;-67
2022/03/27 12:26:01;;;;;;;;;;;;;;;15.54;35.99;99468.34;4804789;29;19954;-67
2022/03/27 12:31:25;;;;;;;;;;;;;;;15.61;37.53;99468.34;4806375;29;19959;-68
2022/03/27 12:33:54;;;;;;;;;;;;;;;15.57;40.94;99455.47;4807273;29;19957;-67
2022/03/27 12:36:23;;;;;;;;;;;;;;;15.76;40.05;99458.66;4808044;29;20383;-67
2022/03/27 12:38:50;;;;;;;;;;;;;;;15.77;38.79;99456.66;4807376;29;20275;-77
2022/03/27 12:41:38;;;;;;;;;;;;;;;15.82;38.06;99467.50;4808848;29;20202;-67
2022/03/27 12:44:06;;;;;;;;;;;;;;;15.77;37.95;99456.66;4810122;29;19950;-67
2022/03/27 12:46:33;;;;;;;;;;;;;;;15.62;35.51;99443.78;4807925;29;19955;-67
2022/03/27 12:49:03;;;;;;;;;;;;;;;15.57;38.65;99452.63;4808633;29;19959;-67
2022/03/27 12:51:30;;;;;;;;;;;;;;;15.70;38.90;99446.19;4809182;29;19955;-67
2022/03/27 12:54:05;;;;;;;;;;;;;;;15.67;38.79;99446.19;4811813;29;19948;-67
2022/03/27 12:56:32;;;;;;;;;;;;;;;15.53;38.96;99440.53;4795880;29;19945;-67
2022/03/27 12:59:18;;;;;;;;;;;;;;;15.56;39.99;99440.56;4812407;29;19976;-67
2022/03/27 13:01:46;;;;;;;;;;;;;;;15.86;39.75;99448.59;4811347;29;19957;-67
2022/03/27 13:04:13;;;;;;;;;;;;;;;15.78;40.12;99444.97;4801295;29;19951;-67
2022/03/27 13:06:44;;;;;;;;;;;;;;;15.86;41.34;99445.75;4811685;29;19958;-68
2022/03/27 13:09:20;;;;;;;;;;;;;;;16.01;42.50;99436.06;4810785;29;20336;-68
2022/03/27 13:11:48;;;;;;;;;;;;;;;15.95;44.56;99440.50;4796554;29;19947;-68
2022/03/27 13:14:16;;;;;;;;;;;;;;;16.16;39.57;99440.44;4811784;29;19949;-68
2022/03/27 13:16:53;;;;;;;;;;;;;;;16.01;40.03;99436.06;4812998;29;19957;-68
2022/03/27 13:19:22;;;;;;;;;;;;;;;15.91;37.63;99433.25;4812426;29;19969;-68
2022/03/27 13:21:54;;;;;;;;;;;;;;;15.79;36.66;99440.13;4809470;29;19953;-68
2022/03/27 13:24:31;;;;;;;;;;;;;;;15.85;37.10;99437.69;4812201;29;19954;-67
2022/03/27 13:27:03;;;;;;;;;;;;;;;15.86;39.51;99422.38;4812330;29;20340;-68
2022/03/27 13:29:30;;;;;;;;;;;;;;;15.92;40.20;99421.56;4812264;29;20373;-67
2022/03/27 13:31:58;;;;;;;;;;;;;;;16.15;39.67;99421.91;4811971;29;20369;-69
2022/03/27 13:34:26;;;;;;;;;;;;;;;16.08;40.65;99421.13;4811472;29;20257;-68
2022/03/27 13:36:54;;;;;;;;;;;;;;;16.00;40.33;99416.69;4811367;29;20253;-68
2022/03/27 13:39:22;;;;;;;;;;;;;;;15.96;36.78;99416.72;4809833;29;19962;-67
2022/03/27 13:44:38;;;;;;;;;;;;;;;15.89;41.67;99405.47;4811624;29;19946;-68
2022/03/27 13:47:08;;;;;;;;;;;;;;;15.82;42.34;99404.69;4812094;29;19950;-69
2022/03/27 13:49:35;;;;;;;;;;;;;;;15.95;42.30;99406.66;4811368;29;19959;-68
2022/03/27 13:52:03;;;;;;;;;;;;;;;16.09;42.57;99405.81;4811177;29;19947;-68
2022/03/27 13:54:30;;;;;;;;;;;;;;;16.00;41.38;99408.25;4811518;29;19958;-68
2022/03/27 13:56:57;;;;;;;;;;;;;;;16.11;39.35;99407.03;4810482;29;19951;-69
2022/03/27 13:59:25;;;;;;;;;;;;;;;16.07;42.58;99399.75;4810892;29;20241;-68
2022/03/27 14:01:53;;;;;;;;;;;;;;;16.12;41.60;99400.16;4810283;29;19948;-69
2022/03/27 14:04:21;;;;;;;;;;;;;;;16.20;40.49;99395.28;4810108;29;20366;-68
2022/03/27 14:06:49;;;;;;;;;;;;;;;15.82;42.11;99394.19;4808954;29;19954;-67
2022/03/27 14:09:16;;;;;;;;;;;;;;;15.86;41.87;99397.00;4808024;29;19952;-67
2022/03/27 14:11:44;;;;;;;;;;;;;;;15.84;40.87;99396.59;4810942;29;19961;-68
2022/03/27 14:14:12;;;;;;;;;;;;;;;15.98;40.00;99388.91;4796814;29;19958;-68
2022/03/27 14:16:44;;;;;;;;;;;;;;;15.94;41.03;99390.94;4808360;29;19960;-68
2022/03/27 14:19:12;;;;;;;;;;;;;;;15.83;39.37;99389.34;4808691;29;19954;-67
2022/03/27 14:21:40;;;;;;;;;;;;;;;15.67;39.50;99387.75;4793666;29;20266;-68
2022/03/27 14:24:07;;;;;;;;;;;;;;;15.64;40.12;99387.78;4811728;29;19955;-67
2022/03/27 14:26:34;;;;;;;;;;;;;;;15.69;40.36;99382.53;4811886;29;19947;-67
2022/03/27 14:29:03;;;;;;;;;;;;;;;15.80;41.18;99378.91;4810273;29;19958;-68
2022/03/27 14:31:30;;;;;;;;;;;;;;;15.94;40.68;99385.31;4804117;29;19969;-67
2022/03/27 14:33:57;;;;;;;;;;;;;;;15.99;43.30;99373.56;4801873;29;19949;-67
2022/03/27 14:36:24;;;;;;;;;;;;;;;15.95;41.26;99372.78;4802450;29;19960;-67
2022/03/27 14:38:53;;;;;;;;;;;;;;;15.84;42.21;99388.97;4811573;29;19956;-67
2022/03/27 14:41:20;;;;;;;;;;;;;;;15.90;42.17;99375.22;4810521;29;19967;-67
2022/03/27 14:43:48;;;;;;;;;;;;;;;15.86;42.26;99371.63;4810721;29;20336;-67
2022/03/27 14:46:15;;;;;;;;;;;;;;;15.84;42.94;99371.22;4811313;29;19949;-67
2022/03/27 14:48:43;;;;;;;;;;;;;;;15.89;44.11;99377.25;4811612;29;19954;-67
2022/03/27 14:51:11;;;;;;;;;;;;;;;15.78;40.35;99376.47;4810841;29;19950;-67
2022/03/27 14:56:25;;;;;;;;;;;;;;;15.81;40.66;99372.84;4799436;29;19948;-67
2022/03/27 14:58:53;;;;;;;;;;;;;;;15.73;40.45;99372.06;4809797;29;19950;-67
2022/03/27 15:01:20;;;;;;;;;;;;;;;16.02;39.52;99369.13;4802372;29;19977;-67
2022/03/27 15:03:48;;;;;;;;;;;;;;;15.85;40.14;99373.63;4808992;29;19957;-67
2022/03/27 15:06:15;;;;;;;;;;;;;;;15.75;41.11;99366.81;4811281;29;19951;-67
2022/03/27 15:08:43;;;;;;;;;;;;;;;15.82;42.28;99362.38;4804002;29;19991;-68
2022/03/27 15:11:10;;;;;;;;;;;;;;;15.82;41.44;99362.38;4808336;29;19960;-68
2022/03/27 15:13:38;;;;;;;;;;;;;;;15.85;41.33;99361.53;4810755;29;19949;-68
2022/03/27 15:16:05;;;;;;;;;;;;;;;15.93;40.94;99360.31;4808392;29;20342;-68
2022/03/27 15:18:35;;;;;;;;;;;;;;;16.05;40.64;99366.31;4808021;29;19947;-67
2022/03/27 15:21:02;;;;;;;;;;;;;;;15.99;41.14;99365.13;4805601;29;19968;-67
2022/03/27 15:23:30;;;;;;;;;;;;;;;15.96;41.73;99360.31;4792281;29;19956;-67
2022/03/27 15:25:57;;;;;;;;;;;;;;;16.11;41.45;99359.06;4809008;29;19960;-67
2022/03/27 15:28:26;;;;;;;;;;;;;;;16.09;41.26;99355.03;4809534;29;19954;-67
2022/03/27 15:30:53;;;;;;;;;;;;;;;15.78;42.10;99351.09;4810143;29;19952;-67
2022/03/27 15:33:20;;;;;;;;;;;;;;;15.80;43.42;99351.47;4809543;29;19960;-67
2022/03/27 15:35:48;;;;;;;;;;;;;;;15.52;43.57;99352.38;4806217;29;19970;-67
2022/03/27 15:38:15;;;;;;;;;;;;;;;15.80;43.40;99348.66;4809737;29;19951;-67
2022/03/27 15:40:45;;;;;;;;;;;;;;;15.60;43.84;99348.31;4803259;29;19973;-67
2022/03/27 15:43:13;;;;;;;;;;;;;;;15.61;44.48;99355.56;4807281;29;19960;-67
2022/03/27 15:45:40;;;;;;;;;;;;;;;15.66;43.85;99351.53;4809980;29;19950;-67
2022/03/27 15:48:07;;;;;;;;;;;;;;;15.70;45.27;99350.28;4809327;29;19948;-67
2022/03/27 15:50:35;;;;;;;;;;;;;;;15.69;44.00;99351.53;4809363;29;19952;-67
2022/03/27 15:53:02;;;;;;;;;;;;;;;15.66;45.09;99354.34;4809296;29;20025;-68
2022/03/27 15:55:30;;;;;;;;;;;;;;;15.70;45.27;99357.94;4808403;29;19956;-66
2022/03/27 15:57:57;;;;;;;;;;;;;;;15.66;43.74;99357.97;4809984;29;19948;-67
2022/03/27 16:00:24;;;;;;;;;;;;;;;15.67;43.91;99353.16;4801330;29;19965;-67
2022/03/27 16:02:52;;;;;;;;;;;;;;;15.64;44.49;99354.75;4806438;29;19957;-67
2022/03/27 16:05:19;;;;;;;;;;;;;;;15.55;44.48;99356.41;4807147;29;19948;-67
2022/03/27 16:07:46;;;;;;;;;;;;;;;15.52;44.79;99351.56;4813738;29;19953;-68
2022/03/27 16:10:16;;;;;;;;;;;;;;;15.51;45.68;99350.75;4806047;29;19953;-67
2022/03/27 16:12:43;;;;;;;;;;;;;;;15.52;45.56;99352.38;4808760;29;19966;-67
2022/03/27 16:15:11;;;;;;;;;;;;;;;15.52;45.76;99354.38;4809040;29;19952;-68
2022/03/27 16:17:38;;;;;;;;;;;;;;;15.55;45.52;99351.53;4805701;29;19963;-67
2022/03/27 16:20:06;;;;;;;;;;;;;;;15.54;45.43;99351.94;4808825;29;19951;-67
2022/03/27 16:22:34;;;;;;;;;;;;;;;15.53;46.32;99356.78;4809741;29;19950;-67
2022/03/27 16:25:01;;;;;;;;;;;;;;;15.46;45.26;99356.78;4809531;29;19950;-67
2022/03/27 16:27:28;;;;;;;;;;;;;;;15.44;45.43;99369.66;4812360;29;20222;-68
2022/03/27 16:29:57;;;;;;;;;;;;;;;15.30;46.11;99361.22;4815490;29;19955;-67
2022/03/27 16:32:25;;;;;;;;;;;;;;;15.30;46.75;99364.84;4815661;29;19957;-68
2022/03/27 16:34:53;;;;;;;;;;;;;;;15.30;46.15;99367.66;4813683;29;19974;-67
2022/03/27 16:37:22;;;;;;;;;;;;;;;15.30;48.54;99367.66;4798433;29;19981;-67
2022/03/27 16:39:50;;;;;;;;;;;;;;;15.28;45.92;99367.25;4815036;29;20376;-69
2022/03/27 16:42:17;;;;;;;;;;;;;;;15.30;46.14;99372.50;4814056;29;20340;-67
2022/03/27 16:44:45;;;;;;;;;;;;;;;15.27;46.64;99367.66;4814694;29;19948;-67
2022/03/27 16:47:14;;;;;;;;;;;;;;;15.20;47.60;99364.84;4814773;29;19956;-67
2022/03/27 16:49:41;;;;;;;;;;;;;;;15.13;48.70;99369.28;4814612;29;20361;-67
2022/03/27 16:52:09;;;;;;;;;;;;;;;15.06;48.21;99357.97;4814875;29;19956;-67
2022/03/27 16:54:36;;;;;;;;;;;;;;;15.06;46.91;99366.44;4815084;29;19957;-67
2022/03/27 16:57:04;;;;;;;;;;;;;;;15.02;47.63;99370.47;4811866;29;20364;-68
2022/03/27 16:59:31;;;;;;;;;;;;;;;14.97;48.63;99360.41;4814774;29;19956;-67
2022/03/27 17:01:58;;;;;;;;;;;;;;;14.95;50.75;99362.00;4814182;29;19967;-67
2022/03/27 17:04:26;;;;;;;;;;;;;;;14.83;50.68;99366.03;4815218;29;19949;-67
2022/03/27 17:06:53;;;;;;;;;;;;;;;14.77;50.30;99369.66;4814979;29;19957;-67
2022/03/27 17:09:20;;;;;;;;;;;;;;;14.65;50.55;99367.19;4814828;29;19956;-68
2022/03/27 17:11:48;;;;;;;;;;;;;;;14.59;50.68;99363.97;4810870;29;19973;-69
2022/03/27 17:14:16;;;;;;;;;;;;;;;14.55;50.96;99374.41;4813377;29;19947;-68
2022/03/27 17:16:44;;;;;;;;;;;;;;;14.52;51.96;99363.16;4814174;29;20345;-67
2022/03/27 17:19:11;;;;;;;;;;;;;;;14.46;51.38;99368.38;4796949;30;19948;-67
2022/03/27 17:21:49;;;;;;;;;;;;;;;14.43;51.15;99369.97;4800235;29;19966;-68
2022/03/27 17:24:17;;;;;;;;;;;;;;;14.37;50.88;99371.56;4813937;29;19963;-69
2022/03/27 17:26:44;;;;;;;;;;;;;;;14.32;53.11;99373.97;4814256;29;19949;-69
2022/03/27 17:29:11;;;;;;;;;;;;;;;14.20;52.89;99365.84;4810904;29;19987;-67
2022/03/27 17:31:39;;;;;;;;;;;;;;;14.13;52.38;99368.63;4813251;29;20249;-67
2022/03/27 17:34:06;;;;;;;;;;;;;;;14.08;51.91;99360.56;4814966;29;19949;-67
2022/03/27 17:36:34;;;;;;;;;;;;;;;14.06;51.81;99360.16;4812714;29;19953;-67
2022/03/27 17:39:02;;;;;;;;;;;;;;;14.00;52.25;99361.72;4811221;29;19952;-68
2022/03/27 17:41:33;;;;;;;;;;;;;;;13.93;52.19;99365.34;4810695;29;20271;-67
2022/03/27 17:44:01;;;;;;;;;;;;;;;13.86;52.12;99364.50;4812456;29;19952;-67
2022/03/27 17:46:28;;;;;;;;;;;;;;;13.83;52.48;99360.47;4811337;29;19952;-67
2022/03/27 17:48:58;;;;;;;;;;;;;;;13.79;52.61;99354.03;4806874;29;19965;-67
2022/03/27 17:51:26;;;;;;;;;;;;;;;13.78;52.49;99360.84;4811071;29;20028;-68
2022/03/27 17:53:53;;;;;;;;;;;;;;;13.75;52.95;99361.59;4810321;29;19957;-67
2022/03/27 17:56:20;;;;;;;;;;;;;;;13.70;53.06;99361.97;4809639;29;19957;-67
2022/03/27 17:58:48;;;;;;;;;;;;;;;13.73;52.81;99364.00;4797688;29;19962;-67
2022/03/27 18:01:15;;;;;;;;;;;;;;;13.72;53.18;99368.00;4807374;29;20401;-67
2022/03/27 18:03:42;;;;;;;;;;;;;;;13.68;54.17;99368.00;4810664;29;19948;-67
2022/03/27 18:06:10;;;;;;;;;;;;;;;13.66;53.60;99370.41;4795658;29;20221;-67
2022/03/27 18:08:38;;;;;;;;;;;;;;;13.69;53.53;99374.44;4811343;29;19956;-67
2022/03/27 18:11:06;;;;;;;;;;;;;;;13.65;54.27;99374.41;4811061;29;19953;-67
2022/03/27 18:13:34;;;;;;;;;;;;;;;13.64;54.34;99378.44;4810016;29;19951;-67
2022/03/27 18:16:01;;;;;;;;;;;;;;;13.59;54.75;99387.22;4812374;29;20381;-67
2022/03/27 18:18:28;;;;;;;;;;;;;;;13.58;54.91;99390.41;4807341;29;19957;-68
2022/03/27 18:20:59;;;;;;;;;;;;;;;13.55;54.84;99388.38;4808120;29;19957;-67
2022/03/27 18:23:28;;;;;;;;;;;;;;;13.57;54.49;99395.22;5259267;24;19976;-66
2022/03/27 18:25:56;;;;;;;;;;;;;;;13.57;54.79;99392.41;4783985;29;19984;-68
2022/03/27 18:28:23;;;;;;;;;;;;;;;13.57;54.41;99395.22;4793083;29;19955;-68
2022/03/27 18:30:50;;;;;;;;;;;;;;;13.57;54.29;99397.25;4794114;29;19952;-68
2022/03/27 18:33:18;;;;;;;;;;;;;;;13.59;54.24;99394.84;4794424;29;19951;-67
2022/03/27 18:35:46;;;;;;;;;;;;;;;13.61;54.68;99407.31;4800195;29;19963;-68
2022/03/27 18:38:14;;;;;;;;;;;;;;;13.60;54.96;99408.50;4791829;30;20273;-67
2022/03/27 18:40:41;;;;;;;;;;;;;;;13.60;55.84;99404.88;4788692;29;19951;-68
2022/03/27 18:43:09;;;;;;;;;;;;;;;13.60;55.96;99410.50;4797948;29;20283;-67
2022/03/27 18:45:36;;;;;;;;;;;;;;;13.61;55.51;99401.69;4791367;29;19971;-67
2022/03/27 18:48:05;;;;;;;;;;;;;;;13.59;55.22;99412.53;4792705;30;19958;-67